Overview Statistics Trail Chart Weather Telemetry Raw packets
 

This is the latest recevied weather packets stored in our database for station/object R2AKT-13. If no packets are shown the sender has not sent any weather packets the latest 10 day(s).

<< 39 40 41 42 43 44 45 >>
Time Temp. Humidity Pressure Rain* Wind** Luminosity Snow
1788176861 19.44° C 64% 994 hPa - 0.89 m/s, 218° - -
1788176301 18.89° C 66% 994 hPa - 0.45 m/s, 219° - -
1788175791 18.33° C 67% 994.1 hPa - 2.24 m/s, 176° - -
1788175231 17.78° C 69% 994.1 hPa - 0.45 m/s, 264° - -
1788174681 17.78° C 70% 994.2 hPa - 0.89 m/s, 273° - -
1788174131 18.33° C 67% 994.1 hPa - 0.45 m/s, 252° - -
1788173606 19.44° C 65% 994.1 hPa - 0.45 m/s, 286° - -
1788173106 18.89° C 64% 994.1 hPa - 0.45 m/s, 99° - -
1788172511 18.89° C 64% 994 hPa - 0 m/s - -
1788172016 18.33° C 66% 994 hPa - 0.45 m/s, 279° - -
1788171526 18.33° C 67% 994 hPa - 0.45 m/s, 241° - -
1788170956 17.78° C 70% 994.1 hPa - 0 m/s - -
1788170386 17.22° C 71% 994 hPa - 0.89 m/s, 267° - -
1788169786 17.78° C 71% 994 hPa - 0.89 m/s, 228° - -
1788169201 18.33° C 70% 994 hPa - 0.45 m/s, 129° - -
1788168721 17.78° C 70% 994 hPa - 0.45 m/s, 146° - -
1788168206 17.78° C 72% 994 hPa - 0 m/s - -
1788167641 17.78° C 71% 994 hPa - 0.45 m/s, 89° - -
1788167106 17.78° C 70% 994 hPa - 0 m/s - -
1788166506 17.78° C 70% 994 hPa - 0 m/s - -
1788165916 17.78° C 70% 993.9 hPa - 0 m/s - -
1788165411 17.78° C 69% 993.9 hPa - 0 m/s - -
1788164891 17.78° C 71% 994 hPa - 0 m/s - -
1788164301 17.22° C 72% 993.9 hPa - 0 m/s - -
1788163807 17.22° C 72% 993.9 hPa - 0 m/s - -

* Rain since midnight (hover to see other rain measurements)
** Current wind speed in m/s (hover to see current wind gust speed)